Time;durP1;ratioP1;P1;durP2;ratioP2;P2;SDS_P1;SDS_P2;PMS_P1;PMS_P2;Temp;Humidity;BMP_temperature;BMP_pressure;BME280_temperature;BME280_humidity;BME280_pressure;Samples;Min_cycle;Max_cycle;Signal;HPM_P1;HPM_P2
2021/12/16 00:01:49;;;;;;;2.55;0.75;;;26.90;99.70;;;;;;5108154;28;20145;-75
2021/12/16 00:07:24;;;;;;;3.28;0.90;;;26.90;99.90;;;;;;5104645;28;20054;-76
2021/12/16 00:31:57;;;;;;;2.42;0.98;;;28.80;97.20;;;;;;5085385;27;20044;-78
2021/12/16 00:34:29;;;;;;;3.22;0.90;;;28.70;97.30;;;;;;5110300;28;20096;-80
2021/12/16 00:36:57;;;;;;;3.00;1.00;;;28.90;97.30;;;;;;5111486;28;20028;-80
2021/12/16 00:39:30;;;;;;;6.25;1.50;;;28.90;97.10;;;;;;5111290;28;20108;-78
2021/12/16 00:42:06;;;;;;;3.13;0.95;;;28.80;96.70;;;;;;5111356;28;20028;-78
2021/12/16 00:49:48;;;;;;;2.75;1.23;;;28.40;96.60;;;;;;5103508;28;20081;-78
2021/12/16 00:55:39;;;;;;;4.05;1.80;;;30.00;95.70;;;;;;5106786;28;20077;-80
2021/12/16 00:58:07;;;;;;;3.20;1.27;;;30.00;94.90;;;;;;5107956;28;20482;-79
2021/12/16 01:00:35;;;;;;;3.45;1.83;;;29.60;94.00;;;;;;5099467;28;20024;-74
2021/12/16 01:03:15;;;;;;;3.80;1.83;;;29.40;94.00;;;;;;5094594;28;20149;-78
2021/12/16 01:06:27;;;;;;;3.20;1.27;;;29.10;94.70;;;;;;5093036;28;20051;-77
2021/12/16 01:36:54;;;;;;;3.75;2.20;;;29.50;93.30;;;;;;5092993;28;20027;-80
2021/12/16 01:42:36;;;;;;;6.00;3.03;;;29.00;93.80;;;;;;5092662;28;20161;-78
2021/12/16 01:50:13;;;;;;;3.40;2.28;;;28.00;94.70;;;;;;5107552;28;20122;-79
2021/12/16 01:55:35;;;;;;;6.18;2.42;;;27.90;94.50;;;;;;5091705;27;20035;-78
2021/12/16 01:58:13;;;;;;;9.30;2.75;;;27.80;95.00;;;;;;5092931;28;20075;-77
2021/12/16 02:01:09;;;;;;;5.15;2.97;;;27.80;95.70;;;;;;5090222;28;20034;-76
2021/12/16 02:03:42;;;;;;;5.80;2.63;;;28.00;95.80;;;;;;5092286;28;20106;-77
2021/12/16 02:06:36;;;;;;;12.45;3.83;;;29.00;96.20;;;;;;5095582;28;20028;-78
2021/12/16 02:09:01;;;;;;;5.40;2.50;;;29.80;95.50;;;;;;5085911;28;20051;-79
2021/12/16 02:36:46;;;;;;;4.28;2.60;;;30.20;93.20;;;;;;5095546;28;20027;-76
2021/12/16 02:39:19;;;;;;;9.57;3.55;;;30.40;93.50;;;;;;5092082;28;20462;-77
2021/12/16 02:41:49;;;;;;;9.63;3.03;;;30.40;92.80;;;;;;5092556;28;20147;-76
2021/12/16 02:44:25;;;;;;;5.75;3.03;;;30.30;92.50;;;;;;5091061;28;20059;-77
2021/12/16 02:49:49;;;;;;;9.77;3.15;;;29.70;92.40;;;;;;5093647;28;20156;-79
2021/12/16 02:52:19;;;;;;;7.13;2.92;;;29.80;93.20;;;;;;5092342;28;20498;-77
2021/12/16 02:54:47;;;;;;;5.75;2.42;;;29.80;92.30;;;;;;5091327;28;20024;-76
2021/12/16 02:57:16;;;;;;;8.57;2.78;;;29.50;92.90;;;;;;5090379;28;20023;-78
2021/12/16 02:59:44;;;;;;;9.10;2.85;;;29.10;93.20;;;;;;5091213;28;20028;-78
2021/12/16 03:02:16;;;;;;;4.45;2.13;;;28.60;93.60;;;;;;5093013;28;20024;-78
2021/12/16 03:04:48;;;;;;;10.52;2.78;;;28.20;94.40;;;;;;5091080;28;20047;-78
2021/12/16 03:07:16;;;;;;;7.10;2.30;;;28.10;94.80;;;;;;5095646;28;21709;-79
2021/12/16 03:14:59;;;;;;;11.77;2.85;;;27.60;95.40;;;;;;5079012;28;20396;-78
2021/12/16 03:17:37;;;;;;;7.63;3.03;;;27.20;96.10;;;;;;5090717;28;20024;-75
2021/12/16 03:20:13;;;;;;;9.18;2.50;;;26.90;96.20;;;;;;5092007;28;20032;-78
2021/12/16 03:36:14;;;;;;;8.52;2.08;;;27.10;96.10;;;;;;5092204;28;20039;-76
2021/12/16 03:38:45;;;;;;;7.75;2.25;;;26.90;96.40;;;;;;5090821;28;20044;-78
2021/12/16 03:41:13;;;;;;;3.70;1.77;;;26.90;96.30;;;;;;5091722;28;20024;-77
2021/12/16 03:43:41;;;;;;;6.90;1.83;;;27.40;96.00;;;;;;5092358;28;20065;-80
2021/12/16 03:46:25;;;;;;;6.60;2.38;;;27.50;95.90;;;;;;5093009;28;20028;-78
2021/12/16 03:48:55;;;;;;;9.13;2.17;;;27.70;96.30;;;;;;5090241;28;20451;-77
2021/12/16 03:51:28;;;;;;;7.68;2.92;;;28.00;95.80;;;;;;5093723;28;20043;-80
2021/12/16 03:54:00;;;;;;;7.93;2.30;;;27.80;95.30;;;;;;5096038;28;20062;-78
2021/12/16 03:56:28;;;;;;;5.75;2.42;;;27.60;95.70;;;;;;5093515;27;20061;-77
2021/12/16 03:58:55;;;;;;;9.55;2.25;;;27.70;95.70;;;;;;5097097;28;20047;-78
2021/12/16 04:01:27;;;;;;;7.70;1.92;;;28.00;95.50;;;;;;5096493;28;20028;-78
2021/12/16 04:03:56;;;;;;;9.65;2.35;;;27.80;95.20;;;;;;5087871;28;20470;-79
2021/12/16 04:06:28;;;;;;;6.95;2.10;;;27.30;96.10;;;;;;5096608;28;20046;-79
2021/12/16 04:08:56;;;;;;;7.88;2.72;;;26.70;96.40;;;;;;5094594;28;20058;-80
2021/12/16 04:11:38;;;;;;;9.30;2.15;;;26.50;96.80;;;;;;5097776;28;20126;-77
2021/12/16 04:14:08;;;;;;;7.72;2.60;;;26.60;96.80;;;;;;5096022;27;20023;-78
2021/12/16 04:16:48;;;;;;;10.15;2.45;;;26.70;96.60;;;;;;5100090;28;20027;-78
2021/12/16 04:19:25;;;;;;;14.98;2.30;;;26.50;96.60;;;;;;5096348;28;20072;-77
2021/12/16 04:22:02;;;;;;;7.55;2.35;;;26.30;96.70;;;;;;5095765;28;20031;-75
2021/12/16 04:24:30;;;;;;;10.73;3.35;;;26.20;96.70;;;;;;5093670;28;20131;-80
2021/12/16 04:26:59;;;;;;;10.45;2.50;;;26.40;97.10;;;;;;5095154;28;20407;-78
2021/12/16 04:29:27;;;;;;;4.28;1.92;;;26.30;96.90;;;;;;5093398;28;20575;-78
2021/12/16 04:31:56;;;;;;;7.53;2.47;;;26.30;96.60;;;;;;5097872;27;20031;-80
2021/12/16 04:34:24;;;;;;;9.27;1.40;;;26.40;96.80;;;;;;5100683;28;20214;-78
2021/12/16 04:36:52;;;;;;;5.47;2.95;;;26.30;96.70;;;;;;5093064;28;20076;-78
2021/12/16 04:39:26;;;;;;;9.15;1.83;;;26.10;96.60;;;;;;5096370;27;20060;-82
2021/12/16 04:41:55;;;;;;;11.60;2.28;;;26.00;96.60;;;;;;5103078;28;20123;-81
2021/12/16 04:44:25;;;;;;;6.28;1.83;;;25.80;96.60;;;;;;5113490;28;20069;-80
2021/12/16 04:46:53;;;;;;;11.52;3.28;;;25.60;97.20;;;;;;5111944;28;20038;-80
2021/12/16 04:49:21;;;;;;;10.93;1.98;;;25.50;97.00;;;;;;5113521;28;20099;-78
2021/12/16 04:51:53;;;;;;;4.68;1.45;;;25.60;97.20;;;;;;5112010;28;20042;-80
2021/12/16 04:54:23;;;;;;;12.15;2.75;;;25.50;97.10;;;;;;5110383;28;20023;-77
2021/12/16 04:56:53;;;;;;;7.07;1.55;;;25.30;97.20;;;;;;5103726;28;20107;-79
2021/12/16 04:59:21;;;;;;;10.27;1.95;;;25.30;97.30;;;;;;5112150;28;20046;-78
2021/12/16 05:01:53;;;;;;;9.55;2.80;;;25.30;97.10;;;;;;5110859;28;20032;-79
2021/12/16 05:04:20;;;;;;;10.15;1.98;;;25.10;97.00;;;;;;5111811;28;20026;-78
2021/12/16 05:06:48;;;;;;;6.03;1.70;;;24.90;97.60;;;;;;5103080;28;20032;-77
2021/12/16 05:09:40;;;;;;;4.95;1.88;;;24.70;97.30;;;;;;5108558;28;20034;-78
2021/12/16 05:12:04;;;;;;;6.95;1.63;;;24.50;98.00;;;;;;5111785;28;20039;-78
2021/12/16 05:14:32;;;;;;;9.48;2.63;;;24.40;98.10;;;;;;5112922;28;20034;-77
2021/12/16 05:17:00;;;;;;;8.48;2.22;;;24.20;98.30;;;;;;5110959;28;20550;-76
2021/12/16 05:19:27;;;;;;;7.22;1.67;;;24.20;98.30;;;;;;5110943;28;20035;-75
2021/12/16 05:24:14;;;;;;;9.48;1.40;;;24.20;98.30;;;;;;5103556;28;20106;-77
2021/12/16 05:24:42;;;;;;;8.82;1.95;;;24.10;98.20;;;;;;5112501;28;20482;-79
2021/12/16 05:27:10;;;;;;;6.03;1.30;;;23.90;98.50;;;;;;5111618;28;20027;-77
2021/12/16 05:29:38;;;;;;;8.15;2.50;;;23.80;98.70;;;;;;5111704;28;20505;-76
2021/12/16 05:32:06;;;;;;;3.85;1.75;;;23.90;98.80;;;;;;5106779;28;20391;-78
2021/12/16 05:34:34;;;;;;;8.38;1.60;;;24.10;98.30;;;;;;5110803;28;20121;-77
2021/12/16 05:37:04;;;;;;;5.75;1.30;;;24.10;98.40;;;;;;5112430;28;20019;-77
2021/12/16 05:39:31;;;;;;;12.85;2.95;;;24.00;98.50;;;;;;5112021;28;20507;-76
2021/12/16 05:41:59;;;;;;;10.23;1.88;;;23.90;98.50;;;;;;5110431;28;20059;-76
2021/12/16 05:44:26;;;;;;;6.50;1.55;;;23.90;98.40;;;;;;5103180;28;20406;-77
2021/12/16 05:46:54;;;;;;;7.40;1.98;;;24.00;98.40;;;;;;5097520;27;20043;-75
2021/12/16 05:49:22;;;;;;;7.60;1.60;;;24.10;98.30;;;;;;5108357;28;20088;-75
2021/12/16 05:51:50;;;;;;;9.80;2.35;;;24.20;98.00;;;;;;5102495;28;20039;-76
2021/12/16 05:54:20;;;;;;;5.90;1.15;;;24.20;98.00;;;;;;5106756;28;20063;-79
2021/12/16 05:56:48;;;;;;;4.82;0.80;;;24.00;98.20;;;;;;5104862;28;20024;-75
2021/12/16 05:59:18;;;;;;;5.40;1.88;;;24.00;98.30;;;;;;5115531;28;20031;-79
2021/12/16 06:01:48;;;;;;;5.95;1.02;;;24.00;98.40;;;;;;5104861;28;20063;-75
2021/12/16 06:04:16;;;;;;;8.50;1.80;;;23.80;98.50;;;;;;5109343;28;20115;-76
2021/12/16 06:06:46;;;;;;;6.65;1.20;;;23.70;98.60;;;;;;5107854;28;20363;-78
2021/12/16 06:09:13;;;;;;;8.88;1.45;;;23.60;98.60;;;;;;5120867;27;20020;-77
2021/12/16 06:11:43;;;;;;;3.58;1.05;;;23.60;98.90;;;;;;5100018;28;20032;-76
2021/12/16 06:14:29;;;;;;;5.35;1.48;;;23.50;98.90;;;;;;5106359;28;20036;-76
2021/12/16 06:27:48;;;;;;;7.15;1.38;;;23.20;99.40;;;;;;5103903;28;20387;-78
2021/12/16 06:30:20;;;;;;;7.15;1.42;;;23.10;99.50;;;;;;5110473;28;20047;-77
2021/12/16 06:32:48;;;;;;;5.70;1.55;;;23.00;99.60;;;;;;5106327;28;20926;-78
2021/12/16 06:35:17;;;;;;;7.75;1.58;;;22.90;99.70;;;;;;5109481;28;20077;-75
2021/12/16 06:37:45;;;;;;;8.15;2.55;;;22.80;99.90;;;;;;5105872;28;20038;-75
2021/12/16 06:40:14;;;;;;;3.92;1.48;;;22.90;99.90;;;;;;5109294;28;20052;-76
2021/12/16 06:42:43;;;;;;;6.32;1.60;;;22.80;99.90;;;;;;5106471;28;20409;-76
2021/12/16 06:45:17;;;;;;;5.95;3.25;;;22.70;99.90;;;;;;5108171;28;20028;-76
2021/12/16 06:50:25;;;;;;;5.60;1.45;;;22.70;99.90;;;;;;5091405;28;20080;-76
2021/12/16 06:52:57;;;;;;;4.55;1.20;;;22.60;99.90;;;;;;5109066;28;20103;-78
2021/12/16 06:58:06;;;;;;;6.70;1.38;;;22.50;99.90;;;;;;5107190;28;20378;-77
2021/12/16 07:00:40;;;;;;;7.68;1.48;;;22.50;99.90;;;;;;5104148;28;20543;-76
2021/12/16 07:03:17;;;;;;;7.40;1.83;;;22.50;99.90;;;;;;5097812;28;20020;-77
2021/12/16 07:05:47;;;;;;;6.18;2.20;;;22.40;99.90;;;;;;5100274;28;20381;-75
2021/12/16 07:08:18;;;;;;;6.93;1.90;;;22.30;99.90;;;;;;5103210;28;20375;-76
2021/12/16 07:10:48;;;;;;;12.55;2.45;;;22.20;99.90;;;;;;5107344;28;20486;-76
2021/12/16 07:13:29;;;;;;;6.30;1.30;;;22.20;99.90;;;;;;5104528;28;20055;-77
2021/12/16 07:15:58;;;;;;;8.20;1.40;;;22.20;99.90;;;;;;5098672;28;20063;-76
2021/12/16 07:18:26;;;;;;;6.20;1.48;;;22.10;99.90;;;;;;5103697;28;20374;-75
2021/12/16 07:20:53;;;;;;;8.23;1.55;;;22.30;99.90;;;;;;5106428;28;20418;-76
2021/12/16 07:23:21;;;;;;;6.53;1.67;;;22.30;99.90;;;;;;5105763;28;20055;-76
2021/12/16 07:25:49;;;;;;;7.05;2.22;;;22.30;99.90;;;;;;5100619;28;20027;-76
2021/12/16 07:28:16;;;;;;;4.78;1.95;;;22.20;99.90;;;;;;5086407;28;20087;-77
2021/12/16 07:30:45;;;;;;;7.15;1.50;;;22.10;99.90;;;;;;5092294;28;20039;-74
2021/12/16 07:33:13;;;;;;;4.72;1.05;;;22.00;99.90;;;;;;5097842;27;20035;-74
2021/12/16 07:35:42;;;;;;;6.82;1.25;;;22.00;99.90;;;;;;5108450;28;20032;-74
2021/12/16 07:38:09;;;;;;;7.90;1.30;;;22.00;99.90;;;;;;5112293;28;20039;-74
2021/12/16 07:40:40;;;;;;;5.03;1.20;;;21.90;99.90;;;;;;5087482;28;20740;-75
2021/12/16 07:45:48;;;;;;;4.38;1.65;;;22.10;99.90;;;;;;5109726;28;20536;-75
2021/12/16 07:48:17;;;;;;;4.93;1.42;;;22.10;99.90;;;;;;5109696;28;20031;-76
2021/12/16 07:50:48;;;;;;;9.57;1.65;;;22.10;99.90;;;;;;5109285;28;20035;-77
2021/12/16 07:53:16;;;;;;;4.50;1.88;;;22.10;99.90;;;;;;5112932;28;20028;-75
2021/12/16 07:55:46;;;;;;;4.47;1.92;;;22.20;99.90;;;;;;5106990;28;20043;-78
2021/12/16 07:58:13;;;;;;;2.88;1.17;;;22.10;99.90;;;;;;5111388;28;20378;-78
2021/12/16 08:00:41;;;;;;;6.72;2.00;;;22.20;99.90;;;;;;5110999;27;20130;-76
2021/12/16 08:03:12;;;;;;;11.30;3.80;;;22.10;99.90;;;;;;5110150;28;20024;-76
2021/12/16 08:05:46;;;;;;;4.50;1.67;;;22.10;99.90;;;;;;5111630;28;20031;-78
2021/12/16 08:08:15;;;;;;;5.80;1.95;;;22.00;99.90;;;;;;5106802;28;20028;-77
2021/12/16 08:10:44;;;;;;;6.22;1.88;;;22.00;99.90;;;;;;5103519;28;20050;-76
2021/12/16 08:13:13;;;;;;;4.80;1.35;;;21.90;99.90;;;;;;5101807;28;20043;-77
2021/12/16 08:15:41;;;;;;;6.05;1.60;;;21.90;99.90;;;;;;5106327;28;20027;-77
2021/12/16 08:18:09;;;;;;;6.45;1.60;;;21.80;99.90;;;;;;5110269;28;20027;-77
2021/12/16 08:20:37;;;;;;;8.63;1.90;;;21.80;99.90;;;;;;5108349;28;20019;-78
2021/12/16 08:23:05;;;;;;;7.72;2.67;;;21.90;99.90;;;;;;5107064;28;20028;-80
2021/12/16 08:25:33;;;;;;;4.07;1.55;;;21.80;99.90;;;;;;5104261;28;20504;-76
2021/12/16 08:28:03;;;;;;;8.40;2.70;;;21.80;99.90;;;;;;5110473;28;20034;-76
2021/12/16 08:30:36;;;;;;;6.18;2.38;;;21.80;99.90;;;;;;5108684;28;20024;-76
2021/12/16 08:33:08;;;;;;;7.32;1.83;;;21.80;99.90;;;;;;5109805;28;20038;-78
2021/12/16 08:35:36;;;;;;;4.05;1.75;;;21.80;99.90;;;;;;5106290;28;20028;-77
2021/12/16 08:38:04;;;;;;;8.10;2.53;;;21.70;99.90;;;;;;5089698;28;20034;-77
2021/12/16 08:40:32;;;;;;;7.57;2.22;;;21.70;99.90;;;;;;5111377;28;20027;-76
2021/12/16 08:42:59;;;;;;;4.03;1.40;;;21.60;99.90;;;;;;5109256;28;20435;-75
2021/12/16 08:45:32;;;;;;;6.43;1.85;;;21.50;99.90;;;;;;5101123;28;20135;-78
2021/12/16 08:48:00;;;;;;;6.40;1.67;;;21.50;99.90;;;;;;5106081;28;20539;-75
2021/12/16 08:50:31;;;;;;;6.05;1.67;;;21.50;99.90;;;;;;5106095;28;20039;-75
2021/12/16 08:53:00;;;;;;;5.00;1.52;;;21.50;99.90;;;;;;5107605;28;20107;-77
2021/12/16 08:55:30;;;;;;;5.85;2.28;;;21.50;99.90;;;;;;5109376;28;20106;-79
2021/12/16 08:57:58;;;;;;;7.38;2.00;;;21.50;99.90;;;;;;5108795;28;20022;-76
2021/12/16 09:00:31;;;;;;;7.93;2.65;;;21.50;99.90;;;;;;5091792;28;20038;-75
2021/12/16 09:02:58;;;;;;;6.38;1.40;;;21.60;99.90;;;;;;5112797;28;20148;-78
2021/12/16 09:05:28;;;;;;;8.30;2.22;;;21.40;99.90;;;;;;5111295;28;20031;-76
2021/12/16 09:07:56;;;;;;;6.68;2.10;;;21.50;99.90;;;;;;5101223;28;20055;-77
2021/12/16 09:10:28;;;;;;;2.97;1.70;;;21.40;99.90;;;;;;5104779;28;20526;-78
2021/12/16 09:13:03;;;;;;;6.82;2.45;;;21.40;99.90;;;;;;5111163;28;20042;-78
2021/12/16 09:15:44;;;;;;;9.77;1.50;;;21.40;99.90;;;;;;5107512;28;20043;-78
2021/12/16 09:18:13;;;;;;;5.20;1.45;;;21.40;99.90;;;;;;5105043;28;22362;-77
2021/12/16 09:20:40;;;;;;;6.38;1.20;;;21.50;99.90;;;;;;5106048;28;20474;-77
2021/12/16 09:23:09;;;;;;;4.85;1.50;;;21.60;99.90;;;;;;5107187;28;20725;-77
2021/12/16 09:25:40;;;;;;;8.90;1.85;;;21.70;99.90;;;;;;5102701;28;20591;-75
2021/12/16 09:28:08;;;;;;;3.40;1.38;;;21.60;99.90;;;;;;5100530;28;20031;-77
2021/12/16 09:30:37;;;;;;;7.60;1.50;;;21.50;99.90;;;;;;5107276;28;20035;-79
2021/12/16 09:33:12;;;;;;;4.80;1.10;;;21.50;99.90;;;;;;5108440;28;20386;-78
2021/12/16 09:35:41;;;;;;;5.47;1.60;;;21.40;99.90;;;;;;5110497;28;20631;-79
2021/12/16 09:38:11;;;;;;;6.70;1.65;;;21.40;99.90;;;;;;5110759;27;20034;-79
2021/12/16 09:40:47;;;;;;;5.30;1.40;;;21.30;99.90;;;;;;5107044;28;20482;-79
2021/12/16 09:43:16;;;;;;;7.20;2.45;;;21.30;99.90;;;;;;5109618;28;20058;-78
2021/12/16 09:45:43;;;;;;;4.82;1.33;;;21.20;99.90;;;;;;5109041;28;20066;-78
2021/12/16 09:48:11;;;;;;;5.40;1.45;;;21.20;99.90;;;;;;5109704;28;20390;-79
2021/12/16 09:50:38;;;;;;;5.25;1.90;;;21.20;99.90;;;;;;5103732;28;20047;-79
2021/12/16 09:53:06;;;;;;;4.38;1.63;;;21.10;99.90;;;;;;5111853;28;20023;-79
2021/12/16 09:55:34;;;;;;;4.38;3.08;;;21.10;99.90;;;;;;5109334;28;20028;-78
2021/12/16 09:58:04;;;;;;;4.03;1.75;;;21.00;99.90;;;;;;5110458;28;20466;-79
2021/12/16 10:00:32;;;;;;;5.55;1.38;;;21.00;99.90;;;;;;5104956;28;20026;-78
2021/12/16 10:03:01;;;;;;;7.50;1.50;;;21.00;99.90;;;;;;5102717;28;20027;-77
2021/12/16 10:05:31;;;;;;;5.47;1.70;;;21.00;99.90;;;;;;5100516;28;20076;-82
2021/12/16 10:08:01;;;;;;;2.58;1.75;;;20.90;99.90;;;;;;5098044;28;20027;-79
2021/12/16 10:10:28;;;;;;;6.72;1.55;;;20.90;99.90;;;;;;5106239;28;20038;-78
2021/12/16 10:12:59;;;;;;;5.13;1.45;;;20.90;99.90;;;;;;5103653;28;20024;-76
2021/12/16 10:18:18;;;;;;;7.55;2.40;;;20.80;99.90;;;;;;5103730;28;20028;-78
2021/12/16 10:21:04;;;;;;;4.03;1.60;;;20.90;99.90;;;;;;5100205;28;20031;-77
2021/12/16 10:23:33;;;;;;;6.95;1.52;;;20.90;99.90;;;;;;5096773;28;20299;-79
2021/12/16 10:26:22;;;;;;;2.80;1.20;;;20.80;99.90;;;;;;5097662;28;20020;-77
2021/12/16 10:28:54;;;;;;;4.93;1.58;;;20.70;99.90;;;;;;5110974;28;20069;-77
2021/12/16 10:31:35;;;;;;;3.13;1.13;;;20.60;99.90;;;;;;5107089;28;20043;-81
2021/12/16 10:34:10;;;;;;;9.00;1.65;;;20.60;99.90;;;;;;5107584;28;20474;-80
2021/12/16 10:36:40;;;;;;;2.90;0.88;;;20.50;99.90;;;;;;5110034;28;20028;-79
2021/12/16 10:39:11;;;;;;;3.10;1.55;;;20.50;99.90;;;;;;5108032;28;20458;-80
2021/12/16 10:41:44;;;;;;;5.22;1.30;;;20.50;99.90;;;;;;5103548;28;20031;-81
2021/12/16 10:44:17;;;;;;;2.60;1.10;;;20.50;99.90;;;;;;5102004;28;20038;-80
2021/12/16 10:47:17;;;;;;;6.05;1.33;;;20.50;99.90;;;;;;5105011;28;20080;-80
2021/12/16 10:49:52;;;;;;;6.10;1.50;;;20.40;99.90;;;;;;5079108;28;20035;-81
2021/12/16 10:52:29;;;;;;;4.20;1.87;;;20.40;99.90;;;;;;5101537;28;20028;-81
2021/12/16 10:54:59;;;;;;;6.28;1.30;;;20.40;99.90;;;;;;5101227;28;20027;-81
2021/12/16 10:57:30;;;;;;;3.42;1.85;;;20.40;99.90;;;;;;5083873;28;20023;-80
2021/12/16 11:00:01;;;;;;;4.75;1.77;;;20.40;99.90;;;;;;5107642;28;20034;-79
2021/12/16 11:02:34;;;;;;;4.50;1.40;;;20.40;99.90;;;;;;5105409;28;20043;-78
2021/12/16 11:05:23;;;;;;;6.75;1.40;;;20.40;99.90;;;;;;5091313;28;20032;-80
2021/12/16 11:07:59;;;;;;;4.82;2.08;;;20.40;99.90;;;;;;5106201;28;20032;-79
2021/12/16 11:10:29;;;;;;;6.07;1.73;;;20.30;99.90;;;;;;5105319;28;20497;-80
2021/12/16 11:12:59;;;;;;;3.28;1.42;;;20.30;99.90;;;;;;5107599;28;20478;-80
2021/12/16 11:15:42;;;;;;;5.40;2.00;;;20.30;99.90;;;;;;5087939;28;20360;-80
2021/12/16 11:18:14;;;;;;;6.82;3.22;;;20.30;99.90;;;;;;5104773;28;20031;-79
2021/12/16 11:21:05;;;;;;;5.47;1.92;;;20.30;99.90;;;;;;5108269;28;20521;-81
2021/12/16 11:23:38;;;;;;;3.10;0.90;;;20.30;99.90;;;;;;5100965;28;20024;-79
2021/12/16 11:26:07;;;;;;;4.22;1.73;;;20.40;99.90;;;;;;5105850;28;20027;-78
2021/12/16 11:28:36;;;;;;;3.97;1.13;;;20.30;99.90;;;;;;5107145;28;20031;-81
2021/12/16 11:31:11;;;;;;;7.38;1.65;;;20.40;99.90;;;;;;5106118;28;20028;-78
2021/12/16 11:33:43;;;;;;;4.15;1.52;;;20.30;99.90;;;;;;5104269;28;20023;-77
2021/12/16 11:36:18;;;;;;;5.93;1.45;;;20.20;99.90;;;;;;5101391;28;20032;-77
2021/12/16 11:39:04;;;;;;;5.35;1.42;;;20.10;99.90;;;;;;5107963;28;20054;-77
2021/12/16 11:41:48;;;;;;;6.07;1.60;;;20.00;99.90;;;;;;5105861;28;20027;-74
2021/12/16 11:44:24;;;;;;;4.28;1.13;;;20.00;99.90;;;;;;5098924;28;20031;-77
2021/12/16 11:46:57;;;;;;;4.90;1.40;;;19.90;99.90;;;;;;5101350;28;20073;-76
2021/12/16 11:49:26;;;;;;;4.93;1.67;;;20.00;99.90;;;;;;5103856;28;20020;-76
2021/12/16 11:52:01;;;;;;;4.70;1.55;;;20.00;99.90;;;;;;5104417;28;20036;-77
2021/12/16 11:54:38;;;;;;;3.22;1.27;;;20.00;99.90;;;;;;5105450;28;20496;-76
2021/12/16 11:57:15;;;;;;;2.85;1.38;;;20.00;99.90;;;;;;5099485;28;20044;-79
2021/12/16 11:59:56;;;;;;;2.30;1.10;;;20.00;99.90;;;;;;5106550;28;20042;-78
2021/12/16 12:02:39;;;;;;;3.58;1.13;;;20.00;99.90;;;;;;5102429;28;20035;-77
2021/12/16 12:05:25;;;;;;;5.78;1.98;;;20.00;99.90;;;;;;5106546;28;20016;-79
2021/12/16 12:07:59;;;;;;;4.53;1.33;;;19.90;99.90;;;;;;5095554;28;20047;-79
2021/12/16 12:10:53;;;;;;;4.72;1.20;;;20.00;99.90;;;;;;5084632;28;20450;-77
2021/12/16 12:13:25;;;;;;;3.20;1.40;;;20.00;99.90;;;;;;5105314;28;20024;-78
2021/12/16 12:16:15;;;;;;;4.22;1.58;;;20.00;99.90;;;;;;5102233;28;20111;-77
2021/12/16 12:18:54;;;;;;;2.15;1.02;;;20.00;99.90;;;;;;5103443;28;20517;-77
2021/12/16 12:21:33;;;;;;;5.55;1.20;;;20.00;99.90;;;;;;5106075;28;20086;-77
2021/12/16 12:24:08;;;;;;;4.43;1.35;;;20.00;99.90;;;;;;5111042;28;20055;-78
2021/12/16 12:26:38;;;;;;;2.97;1.10;;;20.00;99.90;;;;;;5109469;28;20034;-77
2021/12/16 12:29:14;;;;;;;4.85;2.13;;;20.00;99.90;;;;;;5106496;28;20031;-77
2021/12/16 12:31:47;;;;;;;3.38;1.55;;;20.00;99.90;;;;;;5110077;28;20046;-77
2021/12/16 12:34:16;;;;;;;4.43;1.60;;;20.00;99.90;;;;;;5105654;28;20036;-77
2021/12/16 12:36:44;;;;;;;6.13;1.40;;;20.00;99.90;;;;;;5108986;28;20382;-79
2021/12/16 12:39:16;;;;;;;5.10;1.17;;;20.00;99.90;;;;;;5102894;28;20390;-78
2021/12/16 12:41:45;;;;;;;5.70;1.85;;;20.00;99.90;;;;;;5104724;28;20528;-78
2021/12/16 12:44:13;;;;;;;3.20;1.63;;;20.00;99.90;;;;;;5112303;28;20389;-77
2021/12/16 12:46:42;;;;;;;2.83;1.27;;;20.00;99.90;;;;;;5104388;28;20062;-76
2021/12/16 12:49:17;;;;;;;3.78;1.65;;;20.00;99.90;;;;;;5109909;28;20068;-77
2021/12/16 12:51:49;;;;;;;4.03;1.10;;;20.00;99.90;;;;;;5110939;28;20035;-77
2021/12/16 12:54:27;;;;;;;5.50;1.50;;;19.90;99.90;;;;;;5101196;28;20348;-77
2021/12/16 12:56:59;;;;;;;2.83;0.95;;;19.90;99.90;;;;;;5104091;28;20024;-76
2021/12/16 12:59:36;;;;;;;4.03;1.00;;;19.90;99.90;;;;;;5108685;28;20011;-77
2021/12/16 13:02:21;;;;;;;6.03;1.80;;;19.90;99.90;;;;;;5109315;28;20031;-77
2021/12/16 13:05:00;;;;;;;3.08;1.02;;;19.90;99.90;;;;;;5107778;28;20019;-78
2021/12/16 13:07:36;;;;;;;5.10;1.55;;;19.90;99.90;;;;;;5100525;28;20020;-79
2021/12/16 13:10:24;;;;;;;4.80;1.40;;;19.90;99.90;;;;;;5101194;28;20031;-80
2021/12/16 13:13:17;;;;;;;5.68;1.75;;;19.80;99.90;;;;;;5109854;28;20055;-77
2021/12/16 13:15:54;;;;;;;2.22;1.15;;;19.80;99.90;;;;;;5108493;28;20019;-79
2021/12/16 13:26:48;;;;;;;5.50;2.08;;;19.70;99.90;;;;;;5108105;28;20015;-78
2021/12/16 13:29:34;;;;;;;6.85;1.33;;;19.60;99.90;;;;;;5103668;28;20023;-78
2021/12/16 13:32:17;;;;;;;4.78;2.03;;;19.60;99.90;;;;;;5094585;28;20027;-78
2021/12/16 13:34:54;;;;;;;2.72;1.10;;;19.60;99.90;;;;;;5100256;28;20501;-78
2021/12/16 13:37:30;;;;;;;3.20;1.63;;;19.60;99.90;;;;;;5109018;28;20024;-78
2021/12/16 13:40:09;;;;;;;2.85;1.50;;;19.50;99.90;;;;;;5096271;28;20135;-78
2021/12/16 13:42:50;;;;;;;2.88;1.77;;;19.40;99.90;;;;;;5104853;28;20023;-77
2021/12/16 13:45:44;;;;;;;4.15;2.08;;;19.40;99.90;;;;;;5107044;28;20455;-78
2021/12/16 14:07:12;;;;;;;5.05;1.63;;;19.30;99.90;;;;;;5093218;28;20043;-77
2021/12/16 14:10:16;;;;;;;7.53;2.33;;;19.40;99.90;;;;;;5104748;28;20177;-79
2021/12/16 14:16:23;;;;;;;3.55;2.03;;;19.30;99.90;;;;;;5095351;28;20111;-78
2021/12/16 14:25:19;;;;;;;5.47;2.13;;;19.20;99.90;;;;;;5104937;28;20059;-79
2021/12/16 14:47:01;;;;;;;3.72;1.83;;;19.10;99.90;;;;;;5102613;28;20375;-77
2021/12/16 14:49:31;;;;;;;9.23;1.83;;;19.10;99.90;;;;;;5110997;28;20023;-78
2021/12/16 14:51:59;;;;;;;3.97;1.50;;;19.00;99.90;;;;;;5110219;28;20050;-78
2021/12/16 14:54:34;;;;;;;8.45;2.22;;;19.10;99.90;;;;;;5106807;28;20031;-79
2021/12/16 14:57:03;;;;;;;3.13;1.57;;;19.10;99.90;;;;;;5106943;28;20116;-77
2021/12/16 14:59:32;;;;;;;10.63;3.85;;;19.00;99.90;;;;;;5110636;28;20023;-80
2021/12/16 15:02:00;;;;;;;7.68;1.95;;;19.10;99.90;;;;;;5110400;28;20111;-79
2021/12/16 15:04:30;;;;;;;7.03;2.40;;;19.00;99.90;;;;;;5111474;28;20055;-77
2021/12/16 15:07:02;;;;;;;3.90;1.85;;;19.00;99.90;;;;;;5109696;28;20028;-79
2021/12/16 15:09:34;;;;;;;6.75;1.77;;;19.10;99.90;;;;;;5111169;28;20089;-78
2021/12/16 15:37:39;;;;;;;4.53;1.30;;;19.10;99.90;;;;;;5110939;28;20027;-79
2021/12/16 15:40:27;;;;;;;7.18;2.28;;;19.10;99.90;;;;;;5110856;28;20043;-79
2021/12/16 15:42:57;;;;;;;6.25;1.50;;;19.10;99.90;;;;;;5107622;28;20115;-80
2021/12/16 15:45:32;;;;;;;5.07;1.80;;;19.10;99.90;;;;;;5109603;28;20070;-79
2021/12/16 15:48:01;;;;;;;5.72;2.55;;;19.10;99.90;;;;;;5106540;28;20023;-79
2021/12/16 15:50:50;;;;;;;5.43;2.03;;;19.10;99.90;;;;;;5103124;28;20024;-77
2021/12/16 15:53:41;;;;;;;8.15;1.55;;;19.00;99.90;;;;;;5111433;28;20026;-78
2021/12/16 15:56:16;;;;;;;3.65;1.75;;;19.00;99.90;;;;;;5114132;28;20073;-78
2021/12/16 15:58:49;;;;;;;4.18;1.88;;;19.00;99.90;;;;;;5114760;28;20378;-78
2021/12/16 16:01:28;;;;;;;8.77;1.42;;;19.10;99.90;;;;;;5104743;28;20089;-76
2021/12/16 16:03:57;;;;;;;1.77;1.27;;;19.00;99.90;;;;;;5114065;28;20027;-77
2021/12/16 16:06:25;;;;;;;5.03;1.67;;;19.00;99.90;;;;;;5113247;27;20019;-77
2021/12/16 16:09:10;;;;;;;4.43;1.73;;;19.00;99.90;;;;;;5114237;28;20020;-77
2021/12/16 16:11:45;;;;;;;9.35;1.85;;;19.00;99.90;;;;;;5112057;28;20035;-76
2021/12/16 16:14:14;;;;;;;5.43;2.08;;;19.10;99.90;;;;;;5114996;28;20030;-78
2021/12/16 16:16:49;;;;;;;6.70;2.10;;;19.00;99.90;;;;;;5109615;28;20027;-78
2021/12/16 16:19:37;;;;;;;10.25;2.15;;;19.00;99.90;;;;;;5096099;28;20101;-76
2021/12/16 16:22:06;;;;;;;4.43;1.60;;;19.00;99.90;;;;;;5112161;28;20522;-77
2021/12/16 16:24:41;;;;;;;8.95;1.83;;;19.10;99.90;;;;;;5114954;28;20062;-76
2021/12/16 16:27:13;;;;;;;7.57;2.05;;;19.10;99.90;;;;;;5109621;28;20020;-76
2021/12/16 16:29:46;;;;;;;9.60;1.95;;;19.10;99.90;;;;;;5113998;28;20064;-77
2021/12/16 16:32:14;;;;;;;8.15;3.10;;;19.00;99.90;;;;;;5112956;28;20031;-76
2021/12/16 16:34:50;;;;;;;5.40;2.17;;;19.00;99.90;;;;;;5114405;28;20020;-78
2021/12/16 16:37:24;;;;;;;8.68;2.50;;;19.00;99.90;;;;;;5109194;28;20065;-77
2021/12/16 16:39:56;;;;;;;10.60;2.28;;;19.10;99.90;;;;;;5098740;28;20040;-77
2021/12/16 16:42:33;;;;;;;6.88;3.22;;;19.10;99.90;;;;;;5111612;28;20024;-77
2021/12/16 16:45:01;;;;;;;10.65;1.83;;;19.10;99.90;;;;;;5114055;28;20474;-78
2021/12/16 16:47:34;;;;;;;11.00;2.40;;;19.10;99.90;;;;;;5114401;28;20039;-79
2021/12/16 16:50:05;;;;;;;5.38;2.10;;;19.10;99.90;;;;;;5114278;28;20050;-78
2021/12/16 16:52:40;;;;;;;8.88;2.30;;;19.10;99.90;;;;;;5113932;28;20203;-77
2021/12/16 16:55:15;;;;;;;12.90;1.75;;;19.10;99.90;;;;;;5113600;28;20039;-76
2021/12/16 16:57:48;;;;;;;5.43;1.60;;;19.10;99.90;;;;;;5114419;28;20465;-77